sensor_id;sensor_type;location;lat;lon;timestamp;temperature;humidity
12264;DHT22;6194;49.010;8.414;2023-02-28T00:00:31;-0.80;99.90
12264;DHT22;6194;49.010;8.414;2023-02-28T00:02:57;-0.80;99.90
12264;DHT22;6194;49.010;8.414;2023-02-28T00:05:24;-0.90;99.90
12264;DHT22;6194;49.010;8.414;2023-02-28T00:07:50;-0.90;99.90
12264;DHT22;6194;49.010;8.414;2023-02-28T00:10:20;-0.90;99.90
12264;DHT22;6194;49.010;8.414;2023-02-28T00:12:49;-1.00;99.90
12264;DHT22;6194;49.010;8.414;2023-02-28T00:15:15;-0.90;99.90
12264;DHT22;6194;49.010;8.414;2023-02-28T00:17:41;-1.00;99.90
12264;DHT22;6194;49.010;8.414;2023-02-28T00:20:08;-1.00;99.90
12264;DHT22;6194;49.010;8.414;2023-02-28T00:22:36;-1.00;99.90
12264;DHT22;6194;49.010;8.414;2023-02-28T00:25:03;-1.00;99.90
12264;DHT22;6194;49.010;8.414;2023-02-28T00:27:29;-1.00;99.90
12264;DHT22;6194;49.010;8.414;2023-02-28T00:29:55;-1.00;99.90
12264;DHT22;6194;49.010;8.414;2023-02-28T00:32:21;-1.00;99.90
12264;DHT22;6194;49.010;8.414;2023-02-28T00:34:46;-1.00;99.90
12264;DHT22;6194;49.010;8.414;2023-02-28T00:37:12;-1.10;99.90
12264;DHT22;6194;49.010;8.414;2023-02-28T00:39:38;-1.00;99.90
12264;DHT22;6194;49.010;8.414;2023-02-28T00:42:05;-1.00;99.90
12264;DHT22;6194;49.010;8.414;2023-02-28T00:44:31;-1.00;99.90
12264;DHT22;6194;49.010;8.414;2023-02-28T00:46:58;-1.60;99.90
12264;DHT22;6194;49.010;8.414;2023-02-28T00:49:25;-1.00;99.90
12264;DHT22;6194;49.010;8.414;2023-02-28T00:51:51;-1.00;99.90
12264;DHT22;6194;49.010;8.414;2023-02-28T00:54:17;-1.00;99.90
12264;DHT22;6194;49.010;8.414;2023-02-28T00:56:43;-1.00;99.90
12264;DHT22;6194;49.010;8.414;2023-02-28T00:59:08;-1.10;99.90
12264;DHT22;6194;49.010;8.414;2023-02-28T01:01:34;-1.10;99.90
12264;DHT22;6194;49.010;8.414;2023-02-28T01:04:00;-1.10;99.90
12264;DHT22;6194;49.010;8.414;2023-02-28T01:06:26;-1.10;99.90
12264;DHT22;6194;49.010;8.414;2023-02-28T01:08:52;-1.10;99.90
12264;DHT22;6194;49.010;8.414;2023-02-28T01:11:18;-1.10;99.90
12264;DHT22;6194;49.010;8.414;2023-02-28T01:13:45;-1.20;99.90
12264;DHT22;6194;49.010;8.414;2023-02-28T01:16:12;-1.20;99.90
12264;DHT22;6194;49.010;8.414;2023-02-28T01:18:38;-1.20;99.90
12264;DHT22;6194;49.010;8.414;2023-02-28T01:21:06;-1.20;99.90
12264;DHT22;6194;49.010;8.414;2023-02-28T01:23:32;-1.20;99.90
12264;DHT22;6194;49.010;8.414;2023-02-28T01:26:14;-1.30;99.90
12264;DHT22;6194;49.010;8.414;2023-02-28T01:28:40;-1.30;99.90
12264;DHT22;6194;49.010;8.414;2023-02-28T01:31:06;-1.30;99.90
12264;DHT22;6194;49.010;8.414;2023-02-28T01:33:32;-1.30;99.90
12264;DHT22;6194;49.010;8.414;2023-02-28T01:36:03;-1.30;99.90
12264;DHT22;6194;49.010;8.414;2023-02-28T01:38:29;-1.30;99.90
12264;DHT22;6194;49.010;8.414;2023-02-28T01:40:55;-1.40;99.90
12264;DHT22;6194;49.010;8.414;2023-02-28T01:43:30;-1.50;99.90
12264;DHT22;6194;49.010;8.414;2023-02-28T01:45:57;-1.50;99.90
12264;DHT22;6194;49.010;8.414;2023-02-28T01:48:27;-1.50;99.90
12264;DHT22;6194;49.010;8.414;2023-02-28T01:50:55;-1.50;99.90
12264;DHT22;6194;49.010;8.414;2023-02-28T01:53:28;-1.50;99.90
12264;DHT22;6194;49.010;8.414;2023-02-28T01:55:56;-1.50;99.90
12264;DHT22;6194;49.010;8.414;2023-02-28T01:58:22;-1.60;99.90
12264;DHT22;6194;49.010;8.414;2023-02-28T02:00:48;-1.60;99.90
12264;DHT22;6194;49.010;8.414;2023-02-28T02:03:16;-1.60;99.90
12264;DHT22;6194;49.010;8.414;2023-02-28T02:05:46;-1.60;99.90
12264;DHT22;6194;49.010;8.414;2023-02-28T02:08:25;-1.60;99.90
12264;DHT22;6194;49.010;8.414;2023-02-28T02:10:57;-1.60;99.90
12264;DHT22;6194;49.010;8.414;2023-02-28T02:13:49;-1.60;99.90
12264;DHT22;6194;49.010;8.414;2023-02-28T02:19:00;-1.70;99.90
12264;DHT22;6194;49.010;8.414;2023-02-28T02:32:32;-1.80;99.90
12264;DHT22;6194;49.010;8.414;2023-02-28T02:37:52;-1.70;99.90
12264;DHT22;6194;49.010;8.414;2023-02-28T02:40:27;-1.80;99.90
12264;DHT22;6194;49.010;8.414;2023-02-28T02:43:07;-1.80;99.90
12264;DHT22;6194;49.010;8.414;2023-02-28T02:45:52;-1.60;99.90
12264;DHT22;6194;49.010;8.414;2023-02-28T02:48:23;-1.80;99.90
12264;DHT22;6194;49.010;8.414;2023-02-28T02:50:55;-1.80;99.90
12264;DHT22;6194;49.010;8.414;2023-02-28T02:53:28;-1.90;99.90
12264;DHT22;6194;49.010;8.414;2023-02-28T02:55:55;-1.80;99.90
12264;DHT22;6194;49.010;8.414;2023-02-28T02:58:25;-1.90;99.90
12264;DHT22;6194;49.010;8.414;2023-02-28T03:00:55;-1.90;99.90
12264;DHT22;6194;49.010;8.414;2023-02-28T03:03:23;-2.00;99.90
12264;DHT22;6194;49.010;8.414;2023-02-28T03:05:56;-2.10;99.90
12264;DHT22;6194;49.010;8.414;2023-02-28T03:08:23;-2.10;99.90
12264;DHT22;6194;49.010;8.414;2023-02-28T03:10:50;-2.10;99.90
12264;DHT22;6194;49.010;8.414;2023-02-28T03:13:44;-2.00;99.90
12264;DHT22;6194;49.010;8.414;2023-02-28T03:16:34;-1.90;99.90
12264;DHT22;6194;49.010;8.414;2023-02-28T03:19:10;-1.90;99.90
12264;DHT22;6194;49.010;8.414;2023-02-28T03:21:46;-1.80;99.90
12264;DHT22;6194;49.010;8.414;2023-02-28T03:26:52;-1.70;99.90
12264;DHT22;6194;49.010;8.414;2023-02-28T03:29:43;-1.50;99.90
12264;DHT22;6194;49.010;8.414;2023-02-28T03:32:18;-1.50;99.90
12264;DHT22;6194;49.010;8.414;2023-02-28T03:35:11;-1.40;99.90
12264;DHT22;6194;49.010;8.414;2023-02-28T03:37:41;-1.30;99.90
12264;DHT22;6194;49.010;8.414;2023-02-28T03:40:10;-1.30;99.90
12264;DHT22;6194;49.010;8.414;2023-02-28T03:42:40;-1.20;99.90
12264;DHT22;6194;49.010;8.414;2023-02-28T03:45:19;-1.20;99.90
12264;DHT22;6194;49.010;8.414;2023-02-28T03:50:39;-1.10;99.90
12264;DHT22;6194;49.010;8.414;2023-02-28T03:53:14;-1.10;99.90
12264;DHT22;6194;49.010;8.414;2023-02-28T03:55:48;-1.10;99.90
12264;DHT22;6194;49.010;8.414;2023-02-28T03:58:35;-1.00;99.90
12264;DHT22;6194;49.010;8.414;2023-02-28T04:01:09;-1.10;99.90
12264;DHT22;6194;49.010;8.414;2023-02-28T04:03:38;-1.10;99.90
12264;DHT22;6194;49.010;8.414;2023-02-28T04:06:05;-1.00;99.90
12264;DHT22;6194;49.010;8.414;2023-02-28T04:08:32;-1.00;99.90
12264;DHT22;6194;49.010;8.414;2023-02-28T04:11:02;-1.00;99.90
12264;DHT22;6194;49.010;8.414;2023-02-28T04:13:28;-1.00;99.90
12264;DHT22;6194;49.010;8.414;2023-02-28T04:15:54;-0.90;99.90
12264;DHT22;6194;49.010;8.414;2023-02-28T04:18:19;-0.90;99.90
12264;DHT22;6194;49.010;8.414;2023-02-28T04:20:45;-0.90;99.90
12264;DHT22;6194;49.010;8.414;2023-02-28T04:23:10;-0.90;99.90
12264;DHT22;6194;49.010;8.414;2023-02-28T04:25:36;-0.80;99.90
12264;DHT22;6194;49.010;8.414;2023-02-28T04:28:01;-0.90;99.90
12264;DHT22;6194;49.010;8.414;2023-02-28T04:30:27;-0.90;99.90
12264;DHT22;6194;49.010;8.414;2023-02-28T04:32:54;-0.80;99.90
12264;DHT22;6194;49.010;8.414;2023-02-28T04:35:20;-0.20;99.90
12264;DHT22;6194;49.010;8.414;2023-02-28T04:37:46;-0.80;99.90
12264;DHT22;6194;49.010;8.414;2023-02-28T04:40:11;-0.80;99.90
12264;DHT22;6194;49.010;8.414;2023-02-28T04:42:37;-0.80;99.90
12264;DHT22;6194;49.010;8.414;2023-02-28T04:45:03;-0.80;99.90
12264;DHT22;6194;49.010;8.414;2023-02-28T04:47:29;-0.80;99.90
12264;DHT22;6194;49.010;8.414;2023-02-28T04:49:55;-0.80;99.90
12264;DHT22;6194;49.010;8.414;2023-02-28T04:52:20;-0.80;99.90
12264;DHT22;6194;49.010;8.414;2023-02-28T04:54:46;-0.80;99.90
12264;DHT22;6194;49.010;8.414;2023-02-28T04:57:11;-0.80;99.90
12264;DHT22;6194;49.010;8.414;2023-02-28T04:59:37;-0.90;99.90
12264;DHT22;6194;49.010;8.414;2023-02-28T05:02:02;-0.70;99.90
12264;DHT22;6194;49.010;8.414;2023-02-28T05:04:35;-0.90;99.90
12264;DHT22;6194;49.010;8.414;2023-02-28T05:07:02;-0.90;99.90
12264;DHT22;6194;49.010;8.414;2023-02-28T05:09:28;-0.40;99.90
12264;DHT22;6194;49.010;8.414;2023-02-28T05:11:54;-0.90;99.90
12264;DHT22;6194;49.010;8.414;2023-02-28T05:14:22;-0.90;99.90
12264;DHT22;6194;49.010;8.414;2023-02-28T05:16:47;-0.90;99.90
12264;DHT22;6194;49.010;8.414;2023-02-28T05:19:13;-1.00;99.90
12264;DHT22;6194;49.010;8.414;2023-02-28T05:21:41;-1.00;99.90
12264;DHT22;6194;49.010;8.414;2023-02-28T05:24:13;-1.00;99.90
12264;DHT22;6194;49.010;8.414;2023-02-28T05:26:40;-1.10;99.90
12264;DHT22;6194;49.010;8.414;2023-02-28T05:29:06;-1.10;99.90
12264;DHT22;6194;49.010;8.414;2023-02-28T05:31:33;-1.10;99.90
12264;DHT22;6194;49.010;8.414;2023-02-28T05:33:58;-1.20;99.90
12264;DHT22;6194;49.010;8.414;2023-02-28T05:36:24;-1.20;99.90
12264;DHT22;6194;49.010;8.414;2023-02-28T05:38:51;-1.20;99.90
12264;DHT22;6194;49.010;8.414;2023-02-28T05:41:17;-1.10;99.90
12264;DHT22;6194;49.010;8.414;2023-02-28T05:43:45;-1.10;99.90
12264;DHT22;6194;49.010;8.414;2023-02-28T05:46:11;-1.10;99.90
12264;DHT22;6194;49.010;8.414;2023-02-28T05:48:38;-1.00;99.90
12264;DHT22;6194;49.010;8.414;2023-02-28T05:51:05;-0.90;99.90
12264;DHT22;6194;49.010;8.414;2023-02-28T05:53:31;-0.90;99.90
12264;DHT22;6194;49.010;8.414;2023-02-28T05:55:57;-0.90;99.90
12264;DHT22;6194;49.010;8.414;2023-02-28T05:58:23;-0.90;99.90
12264;DHT22;6194;49.010;8.414;2023-02-28T06:00:51;-0.90;99.90
12264;DHT22;6194;49.010;8.414;2023-02-28T06:03:16;-0.90;99.90
12264;DHT22;6194;49.010;8.414;2023-02-28T06:05:42;-0.80;99.90
12264;DHT22;6194;49.010;8.414;2023-02-28T06:08:07;-0.80;99.90
12264;DHT22;6194;49.010;8.414;2023-02-28T06:10:34;-0.80;99.90
12264;DHT22;6194;49.010;8.414;2023-02-28T06:13:01;-0.70;99.90
12264;DHT22;6194;49.010;8.414;2023-02-28T06:15:28;0.90;99.90
12264;DHT22;6194;49.010;8.414;2023-02-28T06:17:54;-0.70;99.90
12264;DHT22;6194;49.010;8.414;2023-02-28T06:20:22;-0.60;99.90
12264;DHT22;6194;49.010;8.414;2023-02-28T06:22:48;-0.60;99.90
12264;DHT22;6194;49.010;8.414;2023-02-28T06:25:15;-0.60;99.90
12264;DHT22;6194;49.010;8.414;2023-02-28T06:27:41;-0.50;99.90
12264;DHT22;6194;49.010;8.414;2023-02-28T06:30:07;-0.50;99.90
12264;DHT22;6194;49.010;8.414;2023-02-28T06:32:33;-0.40;99.90
12264;DHT22;6194;49.010;8.414;2023-02-28T06:34:58;-0.40;99.90
12264;DHT22;6194;49.010;8.414;2023-02-28T06:37:24;-0.40;99.90
12264;DHT22;6194;49.010;8.414;2023-02-28T06:39:53;-0.40;99.90
12264;DHT22;6194;49.010;8.414;2023-02-28T06:42:22;-0.40;99.90
12264;DHT22;6194;49.010;8.414;2023-02-28T06:44:48;-0.40;99.90
12264;DHT22;6194;49.010;8.414;2023-02-28T06:47:13;-0.40;99.90
12264;DHT22;6194;49.010;8.414;2023-02-28T06:49:39;-0.40;99.90
12264;DHT22;6194;49.010;8.414;2023-02-28T06:52:05;-0.30;99.90
12264;DHT22;6194;49.010;8.414;2023-02-28T06:54:30;-0.30;99.90
12264;DHT22;6194;49.010;8.414;2023-02-28T06:56:57;-0.20;99.90
12264;DHT22;6194;49.010;8.414;2023-02-28T06:59:23;-0.20;99.90
12264;DHT22;6194;49.010;8.414;2023-02-28T07:01:49;-0.20;99.90
12264;DHT22;6194;49.010;8.414;2023-02-28T07:04:14;-0.10;99.90
12264;DHT22;6194;49.010;8.414;2023-02-28T07:06:40;-0.10;99.90
12264;DHT22;6194;49.010;8.414;2023-02-28T07:09:06;-0.10;99.90
12264;DHT22;6194;49.010;8.414;2023-02-28T07:11:31;-0.10;99.90
12264;DHT22;6194;49.010;8.414;2023-02-28T07:13:57;-0.10;99.90
12264;DHT22;6194;49.010;8.414;2023-02-28T07:16:24;0.00;99.90
12264;DHT22;6194;49.010;8.414;2023-02-28T07:18:51;0.10;99.90
12264;DHT22;6194;49.010;8.414;2023-02-28T07:21:17;0.10;99.90
12264;DHT22;6194;49.010;8.414;2023-02-28T07:23:43;0.10;99.90
12264;DHT22;6194;49.010;8.414;2023-02-28T07:26:15;0.10;99.90
12264;DHT22;6194;49.010;8.414;2023-02-28T07:28:43;0.10;99.90
12264;DHT22;6194;49.010;8.414;2023-02-28T07:31:09;0.20;99.90
12264;DHT22;6194;49.010;8.414;2023-02-28T07:33:35;0.20;99.90
12264;DHT22;6194;49.010;8.414;2023-02-28T07:36:07;0.10;99.90
12264;DHT22;6194;49.010;8.414;2023-02-28T07:38:36;0.10;99.90
12264;DHT22;6194;49.010;8.414;2023-02-28T07:41:03;0.10;99.90
12264;DHT22;6194;49.010;8.414;2023-02-28T07:43:33;0.20;99.90
12264;DHT22;6194;49.010;8.414;2023-02-28T07:46:10;0.20;99.90
12264;DHT22;6194;49.010;8.414;2023-02-28T07:48:37;0.30;99.90
12264;DHT22;6194;49.010;8.414;2023-02-28T07:51:02;0.40;99.90
12264;DHT22;6194;49.010;8.414;2023-02-28T07:53:29;0.30;99.90
12264;DHT22;6194;49.010;8.414;2023-02-28T07:55:56;0.40;99.90
12264;DHT22;6194;49.010;8.414;2023-02-28T07:58:23;0.40;99.90
12264;DHT22;6194;49.010;8.414;2023-02-28T08:00:49;0.50;99.90
12264;DHT22;6194;49.010;8.414;2023-02-28T08:03:15;0.50;99.90
12264;DHT22;6194;49.010;8.414;2023-02-28T08:05:41;0.60;99.90
12264;DHT22;6194;49.010;8.414;2023-02-28T08:08:08;0.50;99.90
12264;DHT22;6194;49.010;8.414;2023-02-28T08:10:34;0.60;99.90
12264;DHT22;6194;49.010;8.414;2023-02-28T08:12:59;0.70;99.90
12264;DHT22;6194;49.010;8.414;2023-02-28T08:15:25;0.60;99.90
12264;DHT22;6194;49.010;8.414;2023-02-28T08:17:51;0.80;99.90
12264;DHT22;6194;49.010;8.414;2023-02-28T08:20:17;0.80;99.90
12264;DHT22;6194;49.010;8.414;2023-02-28T08:22:42;0.80;99.90
12264;DHT22;6194;49.010;8.414;2023-02-28T08:25:08;0.90;99.90
12264;DHT22;6194;49.010;8.414;2023-02-28T08:27:35;1.00;99.90
12264;DHT22;6194;49.010;8.414;2023-02-28T08:30:01;1.00;99.90
12264;DHT22;6194;49.010;8.414;2023-02-28T08:32:27;1.10;99.90
12264;DHT22;6194;49.010;8.414;2023-02-28T08:34:52;1.20;99.90
12264;DHT22;6194;49.010;8.414;2023-02-28T08:37:18;1.10;99.90
12264;DHT22;6194;49.010;8.414;2023-02-28T08:39:43;1.20;99.90
12264;DHT22;6194;49.010;8.414;2023-02-28T08:42:09;1.10;99.90
12264;DHT22;6194;49.010;8.414;2023-02-28T08:44:34;1.10;99.90
12264;DHT22;6194;49.010;8.414;2023-02-28T08:47:00;1.10;99.90
12264;DHT22;6194;49.010;8.414;2023-02-28T08:49:26;1.20;99.90
12264;DHT22;6194;49.010;8.414;2023-02-28T08:51:51;1.20;99.90
12264;DHT22;6194;49.010;8.414;2023-02-28T08:54:17;1.10;99.90
12264;DHT22;6194;49.010;8.414;2023-02-28T08:56:45;1.40;99.90
12264;DHT22;6194;49.010;8.414;2023-02-28T08:59:11;1.40;99.90
12264;DHT22;6194;49.010;8.414;2023-02-28T09:01:37;1.40;99.90
12264;DHT22;6194;49.010;8.414;2023-02-28T09:04:03;1.50;99.90
12264;DHT22;6194;49.010;8.414;2023-02-28T09:06:28;1.50;99.90
12264;DHT22;6194;49.010;8.414;2023-02-28T09:08:57;1.60;99.90
12264;DHT22;6194;49.010;8.414;2023-02-28T09:11:24;1.70;99.90
12264;DHT22;6194;49.010;8.414;2023-02-28T09:13:49;2.00;99.90
12264;DHT22;6194;49.010;8.414;2023-02-28T09:16:16;1.80;99.90
12264;DHT22;6194;49.010;8.414;2023-02-28T09:18:43;2.00;99.90
12264;DHT22;6194;49.010;8.414;2023-02-28T09:21:11;2.10;99.90
12264;DHT22;6194;49.010;8.414;2023-02-28T09:23:40;1.90;99.90
12264;DHT22;6194;49.010;8.414;2023-02-28T09:26:06;2.70;99.90
12264;DHT22;6194;49.010;8.414;2023-02-28T09:28:32;1.70;99.90
12264;DHT22;6194;49.010;8.414;2023-02-28T09:30:58;1.90;99.90
12264;DHT22;6194;49.010;8.414;2023-02-28T09:33:24;1.90;99.90
12264;DHT22;6194;49.010;8.414;2023-02-28T09:35:51;1.80;99.90
12264;DHT22;6194;49.010;8.414;2023-02-28T09:38:22;1.90;99.90
12264;DHT22;6194;49.010;8.414;2023-02-28T09:41:00;2.20;99.90
12264;DHT22;6194;49.010;8.414;2023-02-28T09:43:31;2.20;99.90
12264;DHT22;6194;49.010;8.414;2023-02-28T09:48:47;2.20;99.90
12264;DHT22;6194;49.010;8.414;2023-02-28T09:53:51;2.10;99.90
12264;DHT22;6194;49.010;8.414;2023-02-28T09:56:33;2.10;99.90
12264;DHT22;6194;49.010;8.414;2023-02-28T10:02:01;2.20;99.90
12264;DHT22;6194;49.010;8.414;2023-02-28T10:09:58;2.80;99.90
12264;DHT22;6194;49.010;8.414;2023-02-28T10:12:27;3.00;99.90
12264;DHT22;6194;49.010;8.414;2023-02-28T10:14:56;3.00;99.90
12264;DHT22;6194;49.010;8.414;2023-02-28T10:17:35;2.70;99.90
12264;DHT22;6194;49.010;8.414;2023-02-28T10:20:06;2.80;99.90
12264;DHT22;6194;49.010;8.414;2023-02-28T10:25:29;2.90;99.90
12264;DHT22;6194;49.010;8.414;2023-02-28T10:28:11;2.80;99.90
12264;DHT22;6194;49.010;8.414;2023-02-28T10:30:40;2.90;99.90
12264;DHT22;6194;49.010;8.414;2023-02-28T10:33:34;3.00;99.90
12264;DHT22;6194;49.010;8.414;2023-02-28T10:36:00;3.00;99.90
12264;DHT22;6194;49.010;8.414;2023-02-28T10:38:37;2.90;99.90
12264;DHT22;6194;49.010;8.414;2023-02-28T10:43:30;3.10;99.90
12264;DHT22;6194;49.010;8.414;2023-02-28T10:49:03;2.90;99.90
12264;DHT22;6194;49.010;8.414;2023-02-28T10:51:38;2.90;99.90
12264;DHT22;6194;49.010;8.414;2023-02-28T10:54:04;2.80;99.90
12264;DHT22;6194;49.010;8.414;2023-02-28T10:56:31;2.90;99.90
12264;DHT22;6194;49.010;8.414;2023-02-28T11:01:46;2.70;99.90
12264;DHT22;6194;49.010;8.414;2023-02-28T11:07:03;2.90;99.90
12264;DHT22;6194;49.010;8.414;2023-02-28T11:09:36;2.90;99.90
12264;DHT22;6194;49.010;8.414;2023-02-28T11:12:07;3.00;99.90
12264;DHT22;6194;49.010;8.414;2023-02-28T11:14:49;3.10;99.90
12264;DHT22;6194;49.010;8.414;2023-02-28T11:17:24;3.30;99.90
12264;DHT22;6194;49.010;8.414;2023-02-28T11:19:53;3.40;99.90
12264;DHT22;6194;49.010;8.414;2023-02-28T11:22:23;3.30;99.90
12264;DHT22;6194;49.010;8.414;2023-02-28T11:24:52;3.20;99.90
12264;DHT22;6194;49.010;8.414;2023-02-28T11:29:58;3.70;99.90
12264;DHT22;6194;49.010;8.414;2023-02-28T11:32:25;3.70;99.90
12264;DHT22;6194;49.010;8.414;2023-02-28T11:37:35;3.70;99.90
12264;DHT22;6194;49.010;8.414;2023-02-28T11:40:01;3.80;99.90
12264;DHT22;6194;49.010;8.414;2023-02-28T11:48:54;3.90;99.90
12264;DHT22;6194;49.010;8.414;2023-02-28T12:00:12;3.90;99.90
12264;DHT22;6194;49.010;8.414;2023-02-28T12:05:46;4.00;99.90
12264;DHT22;6194;49.010;8.414;2023-02-28T12:08:27;4.10;99.90
12264;DHT22;6194;49.010;8.414;2023-02-28T12:14:13;4.50;99.90
12264;DHT22;6194;49.010;8.414;2023-02-28T12:19:20;4.20;99.90
12264;DHT22;6194;49.010;8.414;2023-02-28T12:27:21;5.20;99.90
12264;DHT22;6194;49.010;8.414;2023-02-28T12:30:01;5.40;99.90
12264;DHT22;6194;49.010;8.414;2023-02-28T12:32:32;7.10;99.90
12264;DHT22;6194;49.010;8.414;2023-02-28T12:35:21;5.80;99.90
12264;DHT22;6194;49.010;8.414;2023-02-28T12:37:54;6.20;99.90
12264;DHT22;6194;49.010;8.414;2023-02-28T12:40:23;6.60;99.90
12264;DHT22;6194;49.010;8.414;2023-02-28T12:43:04;5.70;99.90
12264;DHT22;6194;49.010;8.414;2023-02-28T12:48:44;5.20;99.90
12264;DHT22;6194;49.010;8.414;2023-02-28T12:51:12;5.30;99.90
12264;DHT22;6194;49.010;8.414;2023-02-28T12:56:41;5.10;99.90
12264;DHT22;6194;49.010;8.414;2023-02-28T12:59:22;5.30;99.90
12264;DHT22;6194;49.010;8.414;2023-02-28T13:10:02;5.10;99.90
12264;DHT22;6194;49.010;8.414;2023-02-28T13:12:28;5.50;99.90
12264;DHT22;6194;49.010;8.414;2023-02-28T13:15:17;5.70;99.90
12264;DHT22;6194;49.010;8.414;2023-02-28T13:17:49;5.60;99.90
12264;DHT22;6194;49.010;8.414;2023-02-28T13:20:25;5.60;99.90
12264;DHT22;6194;49.010;8.414;2023-02-28T13:22:55;5.40;99.90
12264;DHT22;6194;49.010;8.414;2023-02-28T13:27:52;5.50;99.90
12264;DHT22;6194;49.010;8.414;2023-02-28T13:33:35;5.60;99.90
12264;DHT22;6194;49.010;8.414;2023-02-28T13:38:55;5.40;99.90
12264;DHT22;6194;49.010;8.414;2023-02-28T13:46:32;5.30;99.90
12264;DHT22;6194;49.010;8.414;2023-02-28T13:55:02;5.60;99.90
12264;DHT22;6194;49.010;8.414;2023-02-28T14:08:55;5.50;99.90
12264;DHT22;6194;49.010;8.414;2023-02-28T14:11:40;5.40;99.90
12264;DHT22;6194;49.010;8.414;2023-02-28T14:14:08;5.20;99.90
12264;DHT22;6194;49.010;8.414;2023-02-28T14:19:15;5.00;99.90
12264;DHT22;6194;49.010;8.414;2023-02-28T14:22:12;4.90;99.90
12264;DHT22;6194;49.010;8.414;2023-02-28T14:32:30;4.90;99.90
12264;DHT22;6194;49.010;8.414;2023-02-28T14:37:42;5.30;99.90
12264;DHT22;6194;49.010;8.414;2023-02-28T14:40:28;5.40;99.90
12264;DHT22;6194;49.010;8.414;2023-02-28T14:43:05;5.50;99.90
12264;DHT22;6194;49.010;8.414;2023-02-28T14:45:33;5.70;99.90
12264;DHT22;6194;49.010;8.414;2023-02-28T14:48:00;5.70;99.90
12264;DHT22;6194;49.010;8.414;2023-02-28T14:50:30;5.60;99.90
12264;DHT22;6194;49.010;8.414;2023-02-28T14:52:57;5.80;99.90
12264;DHT22;6194;49.010;8.414;2023-02-28T14:55:28;5.70;99.90
12264;DHT22;6194;49.010;8.414;2023-02-28T14:57:59;5.80;99.90
12264;DHT22;6194;49.010;8.414;2023-02-28T15:00:26;5.20;99.90
12264;DHT22;6194;49.010;8.414;2023-02-28T15:02:53;5.10;99.90
12264;DHT22;6194;49.010;8.414;2023-02-28T15:08:05;5.00;99.90
12264;DHT22;6194;49.010;8.414;2023-02-28T15:10:31;5.00;99.90
12264;DHT22;6194;49.010;8.414;2023-02-28T15:13:05;5.00;99.90
12264;DHT22;6194;49.010;8.414;2023-02-28T15:16:17;5.10;99.90
12264;DHT22;6194;49.010;8.414;2023-02-28T15:18:50;5.00;99.90
12264;DHT22;6194;49.010;8.414;2023-02-28T15:23:53;5.30;99.90
12264;DHT22;6194;49.010;8.414;2023-02-28T15:26:23;5.10;99.90
12264;DHT22;6194;49.010;8.414;2023-02-28T15:29:04;5.10;99.90
12264;DHT22;6194;49.010;8.414;2023-02-28T15:31:37;5.20;99.90
12264;DHT22;6194;49.010;8.414;2023-02-28T15:34:06;5.10;99.90
12264;DHT22;6194;49.010;8.414;2023-02-28T15:36:38;5.10;99.90
12264;DHT22;6194;49.010;8.414;2023-02-28T15:39:22;5.10;99.90
12264;DHT22;6194;49.010;8.414;2023-02-28T15:41:48;5.10;99.90
12264;DHT22;6194;49.010;8.414;2023-02-28T15:44:25;5.10;99.90
12264;DHT22;6194;49.010;8.414;2023-02-28T15:47:20;5.20;99.90
12264;DHT22;6194;49.010;8.414;2023-02-28T15:49:59;5.20;99.90
12264;DHT22;6194;49.010;8.414;2023-02-28T15:55:26;5.10;99.90
12264;DHT22;6194;49.010;8.414;2023-02-28T15:57:59;5.00;99.90
12264;DHT22;6194;49.010;8.414;2023-02-28T16:00:30;5.00;99.90
12264;DHT22;6194;49.010;8.414;2023-02-28T16:02:58;5.00;99.90
12264;DHT22;6194;49.010;8.414;2023-02-28T16:05:27;5.00;99.90
12264;DHT22;6194;49.010;8.414;2023-02-28T16:07:55;4.90;99.90
12264;DHT22;6194;49.010;8.414;2023-02-28T16:10:22;5.10;99.90
12264;DHT22;6194;49.010;8.414;2023-02-28T16:12:53;4.80;99.90
12264;DHT22;6194;49.010;8.414;2023-02-28T16:15:20;4.70;99.90
12264;DHT22;6194;49.010;8.414;2023-02-28T16:17:46;4.70;99.90
12264;DHT22;6194;49.010;8.414;2023-02-28T16:22:43;4.70;99.90
12264;DHT22;6194;49.010;8.414;2023-02-28T16:25:12;4.60;99.90
12264;DHT22;6194;49.010;8.414;2023-02-28T16:27:38;4.60;99.90
12264;DHT22;6194;49.010;8.414;2023-02-28T16:30:05;4.60;99.90
12264;DHT22;6194;49.010;8.414;2023-02-28T16:32:33;4.50;99.90
12264;DHT22;6194;49.010;8.414;2023-02-28T16:35:00;4.50;99.90
12264;DHT22;6194;49.010;8.414;2023-02-28T16:37:27;4.50;99.90
12264;DHT22;6194;49.010;8.414;2023-02-28T16:39:53;4.40;99.90
12264;DHT22;6194;49.010;8.414;2023-02-28T16:42:23;4.40;99.90
12264;DHT22;6194;49.010;8.414;2023-02-28T16:44:50;4.30;99.90
12264;DHT22;6194;49.010;8.414;2023-02-28T16:47:16;4.30;99.90
12264;DHT22;6194;49.010;8.414;2023-02-28T16:49:41;4.20;99.90
12264;DHT22;6194;49.010;8.414;2023-02-28T16:52:09;4.20;99.90
12264;DHT22;6194;49.010;8.414;2023-02-28T16:54:35;4.20;99.90
12264;DHT22;6194;49.010;8.414;2023-02-28T16:57:02;4.10;99.90
12264;DHT22;6194;49.010;8.414;2023-02-28T16:59:28;4.00;99.90
12264;DHT22;6194;49.010;8.414;2023-02-28T17:01:55;3.90;99.90
12264;DHT22;6194;49.010;8.414;2023-02-28T17:04:24;3.90;99.90
12264;DHT22;6194;49.010;8.414;2023-02-28T17:06:49;3.80;99.90
12264;DHT22;6194;49.010;8.414;2023-02-28T17:09:21;3.70;99.90
12264;DHT22;6194;49.010;8.414;2023-02-28T17:11:47;3.70;99.90
12264;DHT22;6194;49.010;8.414;2023-02-28T17:14:14;3.70;99.90
12264;DHT22;6194;49.010;8.414;2023-02-28T17:16:40;3.60;99.90
12264;DHT22;6194;49.010;8.414;2023-02-28T17:19:11;3.50;99.90
12264;DHT22;6194;49.010;8.414;2023-02-28T17:21:37;3.40;99.90
12264;DHT22;6194;49.010;8.414;2023-02-28T17:24:03;3.50;99.90
12264;DHT22;6194;49.010;8.414;2023-02-28T17:26:29;3.40;99.90
12264;DHT22;6194;49.010;8.414;2023-02-28T17:28:56;3.30;99.90
12264;DHT22;6194;49.010;8.414;2023-02-28T17:31:23;3.30;99.90
12264;DHT22;6194;49.010;8.414;2023-02-28T17:33:49;3.20;99.90
12264;DHT22;6194;49.010;8.414;2023-02-28T17:36:16;3.40;99.90
12264;DHT22;6194;49.010;8.414;2023-02-28T17:38:43;3.20;99.90
12264;DHT22;6194;49.010;8.414;2023-02-28T17:41:13;3.10;99.90
12264;DHT22;6194;49.010;8.414;2023-02-28T17:43:39;3.10;99.90
12264;DHT22;6194;49.010;8.414;2023-02-28T17:46:06;3.10;99.90
12264;DHT22;6194;49.010;8.414;2023-02-28T17:48:33;3.00;99.90
12264;DHT22;6194;49.010;8.414;2023-02-28T17:50:59;3.00;99.90
12264;DHT22;6194;49.010;8.414;2023-02-28T17:53:24;2.90;99.90
12264;DHT22;6194;49.010;8.414;2023-02-28T17:55:50;2.90;99.90
12264;DHT22;6194;49.010;8.414;2023-02-28T17:58:16;2.90;99.90
12264;DHT22;6194;49.010;8.414;2023-02-28T18:00:44;2.90;99.90
12264;DHT22;6194;49.010;8.414;2023-02-28T18:03:09;2.90;99.90
12264;DHT22;6194;49.010;8.414;2023-02-28T18:05:36;3.30;99.90
12264;DHT22;6194;49.010;8.414;2023-02-28T18:08:02;2.80;99.90
12264;DHT22;6194;49.010;8.414;2023-02-28T18:10:27;2.70;99.90
12264;DHT22;6194;49.010;8.414;2023-02-28T18:12:53;2.70;99.90
12264;DHT22;6194;49.010;8.414;2023-02-28T18:15:20;2.70;99.90
12264;DHT22;6194;49.010;8.414;2023-02-28T18:17:47;2.60;99.90
12264;DHT22;6194;49.010;8.414;2023-02-28T18:20:13;2.60;99.90
12264;DHT22;6194;49.010;8.414;2023-02-28T18:22:40;2.60;99.90
12264;DHT22;6194;49.010;8.414;2023-02-28T18:25:08;2.60;99.90
12264;DHT22;6194;49.010;8.414;2023-02-28T18:27:36;2.50;99.90
12264;DHT22;6194;49.010;8.414;2023-02-28T18:30:03;2.50;99.90
12264;DHT22;6194;49.010;8.414;2023-02-28T18:32:29;2.40;99.90
12264;DHT22;6194;49.010;8.414;2023-02-28T18:34:55;2.30;99.90
12264;DHT22;6194;49.010;8.414;2023-02-28T18:37:20;2.30;99.90
12264;DHT22;6194;49.010;8.414;2023-02-28T18:39:46;2.30;99.90